Time;durP1;ratioP1;P1;durP2;ratioP2;P2;SDS_P1;SDS_P2;PMS_P1;PMS_P2;Temp;Humidity;BMP_temperature;BMP_pressure;BME280_temperature;BME280_humidity;BME280_pressure;Samples;Min_cycle;Max_cycle;Signal;HPM_P1;HPM_P2
2021/07/14 00:01:26;;;;;;;23.00;20.80;;;;;;;;;;5095173;28;20198;-83
2021/07/14 00:03:53;;;;;;;24.20;21.80;;;;;;;;;;5077148;28;20543;-83
2021/07/14 00:06:19;;;;;;;23.33;20.93;;;;;;;;;;5076796;28;20735;-83
2021/07/14 00:08:45;;;;;;;21.47;19.43;;;;;;;;;;5077319;28;20274;-83
2021/07/14 00:11:11;;;;;;;23.67;21.30;;;;;;;;;;5095770;28;20579;-83
2021/07/14 00:13:57;;;;;;;24.10;21.80;;;;;;;;;;5077183;28;20172;-83
2021/07/14 00:22:12;;;;;;;23.07;20.97;;;;;;;;;;5095259;28;20273;-83
2021/07/14 00:24:38;;;;;;;23.73;21.00;;;;;;;;;;5095772;28;20175;-83
2021/07/14 00:27:06;;;;;;;26.00;23.40;;;;;;;;;;5076346;28;20175;-83
2021/07/14 00:29:36;;;;;;;24.90;22.40;;;;;;;;;;5077023;28;20548;-83
2021/07/14 00:32:04;;;;;;;26.37;23.70;;;;;;;;;;5076581;28;20217;-83
2021/07/14 00:34:30;;;;;;;26.00;23.30;;;;;;;;;;5076841;28;20269;-83
2021/07/14 00:36:56;;;;;;;27.55;24.95;;;;;;;;;;5075425;28;20851;-83
2021/07/14 00:39:22;;;;;;;25.70;23.20;;;;;;;;;;5076781;28;20210;-83
2021/07/14 00:41:48;;;;;;;25.37;22.90;;;;;;;;;;5076615;28;20169;-83
2021/07/14 00:44:14;;;;;;;24.93;22.43;;;;;;;;;;5076399;28;20174;-83
2021/07/14 00:46:40;;;;;;;25.47;22.97;;;;;;;;;;5076272;28;20182;-83
2021/07/14 00:49:07;;;;;;;25.10;22.50;;;;;;;;;;5076722;28;20184;-84
2021/07/14 00:51:33;;;;;;;25.63;23.03;;;;;;;;;;5075703;28;20178;-83
2021/07/14 00:53:59;;;;;;;24.73;22.23;;;;;;;;;;5075713;28;20297;-84
2021/07/14 00:56:26;;;;;;;25.33;22.83;;;;;;;;;;5076131;28;20180;-83
2021/07/14 00:58:57;;;;;;;25.43;22.77;;;;;;;;;;5075888;28;20215;-83
2021/07/14 01:01:23;;;;;;;25.60;22.90;;;;;;;;;;5076606;28;20611;-82
2021/07/14 01:03:56;;;;;;;25.63;23.03;;;;;;;;;;5076480;28;20181;-83
2021/07/14 01:06:26;;;;;;;25.87;23.13;;;;;;;;;;5093949;28;20188;-83
2021/07/14 01:08:58;;;;;;;25.47;22.87;;;;;;;;;;5076660;28;20188;-83
2021/07/14 01:11:26;;;;;;;25.10;22.50;;;;;;;;;;5076290;28;20208;-83
2021/07/14 01:14:01;;;;;;;25.00;22.40;;;;;;;;;;5076051;28;20187;-84
2021/07/14 01:16:33;;;;;;;24.80;22.30;;;;;;;;;;5093550;28;20179;-83
2021/07/14 01:19:20;;;;;;;26.47;23.77;;;;;;;;;;5075482;28;20207;-83
2021/07/14 01:21:49;;;;;;;27.13;23.73;;;;;;;;;;5064930;28;20679;-82
2021/07/14 01:24:33;;;;;;;27.27;23.07;;;;;;;;;;5075358;28;20175;-83
2021/07/14 01:27:16;;;;;;;26.93;24.03;;;;;;;;;;5093443;28;20168;-83
2021/07/14 01:29:44;;;;;;;25.80;23.20;;;;;;;;;;5075443;28;20187;-82
2021/07/14 01:32:11;;;;;;;28.13;25.30;;;;;;;;;;5075382;28;20180;-83
2021/07/14 01:34:38;;;;;;;28.93;25.20;;;;;;;;;;5093620;28;20172;-83
2021/07/14 01:37:06;;;;;;;28.30;25.23;;;;;;;;;;5074301;28;20175;-83
2021/07/14 01:39:34;;;;;;;27.83;24.90;;;;;;;;;;5058082;28;20211;-83
2021/07/14 01:42:01;;;;;;;29.33;26.23;;;;;;;;;;5093201;28;20261;-83
2021/07/14 01:44:27;;;;;;;28.87;25.93;;;;;;;;;;5092566;28;20172;-82
2021/07/14 01:46:57;;;;;;;28.03;25.20;;;;;;;;;;5074166;28;20172;-82
2021/07/14 01:49:24;;;;;;;29.40;26.33;;;;;;;;;;5074287;28;20168;-83
2021/07/14 01:51:55;;;;;;;30.40;27.13;;;;;;;;;;5091799;28;20198;-83
2021/07/14 01:54:23;;;;;;;30.73;27.50;;;;;;;;;;5073281;28;20597;-83
2021/07/14 01:56:50;;;;;;;30.20;26.93;;;;;;;;;;5092543;28;20290;-83
2021/07/14 01:59:17;;;;;;;29.87;26.67;;;;;;;;;;5073885;28;20218;-83
2021/07/14 02:01:44;;;;;;;30.53;27.27;;;;;;;;;;5073499;28;20540;-83
2021/07/14 02:04:33;;;;;;;30.17;26.93;;;;;;;;;;5092153;28;20179;-83
2021/07/14 02:06:59;;;;;;;31.37;27.63;;;;;;;;;;5073911;28;20192;-83
2021/07/14 02:09:25;;;;;;;31.33;27.93;;;;;;;;;;5092288;28;20179;-82
2021/07/14 02:11:53;;;;;;;29.13;25.50;;;;;;;;;;5074404;28;20267;-82
2021/07/14 02:14:21;;;;;;;28.03;25.00;;;;;;;;;;5073820;28;20203;-83
2021/07/14 02:16:48;;;;;;;30.03;26.73;;;;;;;;;;5074132;28;20180;-83
2021/07/14 02:19:16;;;;;;;30.97;27.70;;;;;;;;;;5074026;28;20199;-83
2021/07/14 02:21:42;;;;;;;28.40;25.30;;;;;;;;;;5073241;28;20224;-83
2021/07/14 02:24:11;;;;;;;28.80;25.87;;;;;;;;;;5092087;28;20537;-83
2021/07/14 02:26:37;;;;;;;28.73;25.67;;;;;;;;;;5074029;28;20172;-83
2021/07/14 02:29:04;;;;;;;29.00;26.03;;;;;;;;;;5073268;28;20197;-82
2021/07/14 02:31:30;;;;;;;29.90;25.50;;;;;;;;;;5073725;28;20657;-83
2021/07/14 02:33:56;;;;;;;29.20;25.87;;;;;;;;;;5092239;28;20535;-83
2021/07/14 02:36:23;;;;;;;29.60;26.40;;;;;;;;;;5073535;28;20751;-83
2021/07/14 02:38:54;;;;;;;28.33;25.33;;;;;;;;;;5073199;28;20203;-83
2021/07/14 02:41:43;;;;;;;27.60;24.63;;;;;;;;;;5074286;28;20178;-83
2021/07/14 02:44:10;;;;;;;28.40;25.50;;;;;;;;;;5091860;28;20167;-83
2021/07/14 02:46:39;;;;;;;27.40;24.47;;;;;;;;;;5074260;28;20176;-83
2021/07/14 02:49:06;;;;;;;24.37;22.03;;;;;;;;;;5074087;28;20172;-83
2021/07/14 02:51:34;;;;;;;27.33;22.67;;;;;;;;;;5073827;28;20245;-83
2021/07/14 02:54:01;;;;;;;26.83;22.77;;;;;;;;;;5087143;28;20511;-83
2021/07/14 02:56:29;;;;;;;25.50;22.87;;;;;;;;;;5054433;28;20187;-83
2021/07/14 02:58:58;;;;;;;25.27;22.57;;;;;;;;;;5072355;28;20198;-83
2021/07/14 03:01:24;;;;;;;23.47;21.23;;;;;;;;;;5072446;28;20208;-83
2021/07/14 03:03:51;;;;;;;25.07;22.50;;;;;;;;;;5054042;28;20188;-83
2021/07/14 03:06:17;;;;;;;24.37;21.93;;;;;;;;;;5071649;28;20663;-83
2021/07/14 03:08:47;;;;;;;24.33;21.73;;;;;;;;;;5054568;28;20181;-83
2021/07/14 03:11:14;;;;;;;24.33;21.87;;;;;;;;;;5054604;28;20253;-83
2021/07/14 03:13:41;;;;;;;24.37;21.73;;;;;;;;;;5072260;28;20175;-83
2021/07/14 03:16:07;;;;;;;22.43;20.03;;;;;;;;;;5054297;28;20183;-83
2021/07/14 03:18:33;;;;;;;22.33;20.13;;;;;;;;;;5054271;28;20296;-83
2021/07/14 03:21:00;;;;;;;22.57;20.37;;;;;;;;;;5053645;28;20181;-84
2021/07/14 03:23:26;;;;;;;22.83;20.53;;;;;;;;;;5053458;28;20181;-83
2021/07/14 03:25:53;;;;;;;24.97;21.90;;;;;;;;;;5071702;28;20186;-83
2021/07/14 03:28:25;;;;;;;25.23;22.37;;;;;;;;;;5053979;28;20175;-83
2021/07/14 03:30:51;;;;;;;25.93;23.13;;;;;;;;;;5053885;28;20636;-83
2021/07/14 03:33:18;;;;;;;26.37;22.17;;;;;;;;;;5053806;28;20307;-83
2021/07/14 03:35:44;;;;;;;25.23;22.63;;;;;;;;;;5053236;28;20191;-83
2021/07/14 03:38:12;;;;;;;24.50;22.10;;;;;;;;;;5053335;28;20214;-83
2021/07/14 03:40:40;;;;;;;24.97;22.37;;;;;;;;;;5056616;28;20212;-83
2021/07/14 03:43:07;;;;;;;25.60;22.93;;;;;;;;;;5057503;28;20173;-83
2021/07/14 03:45:33;;;;;;;25.03;22.47;;;;;;;;;;5075382;28;20627;-83
2021/07/14 03:48:00;;;;;;;24.30;21.87;;;;;;;;;;5057572;28;20182;-83
2021/07/14 03:50:26;;;;;;;25.80;23.10;;;;;;;;;;5057454;28;20656;-83
2021/07/14 03:52:53;;;;;;;25.83;23.33;;;;;;;;;;5057589;28;20180;-83
2021/07/14 03:55:19;;;;;;;24.23;21.67;;;;;;;;;;5057322;28;20224;-82
2021/07/14 03:57:45;;;;;;;25.43;22.50;;;;;;;;;;5057317;28;20176;-83
2021/07/14 04:00:12;;;;;;;23.50;20.80;;;;;;;;;;5074860;28;20645;-83
2021/07/14 04:02:39;;;;;;;24.83;22.23;;;;;;;;;;5057016;28;20267;-83
2021/07/14 04:05:06;;;;;;;25.70;22.90;;;;;;;;;;5056932;28;20173;-83
2021/07/14 04:07:33;;;;;;;25.30;22.57;;;;;;;;;;5056745;28;20200;-83
2021/07/14 04:10:00;;;;;;;23.30;20.77;;;;;;;;;;5057196;28;20176;-83
2021/07/14 04:12:27;;;;;;;26.07;21.70;;;;;;;;;;5056284;28;20181;-83
2021/07/14 04:14:53;;;;;;;22.70;20.13;;;;;;;;;;5056276;28;20184;-83
2021/07/14 04:17:19;;;;;;;21.73;19.53;;;;;;;;;;5056561;28;20191;-83
2021/07/14 04:19:46;;;;;;;22.57;20.27;;;;;;;;;;5056494;28;20200;-83
2021/07/14 04:22:13;;;;;;;22.23;19.03;;;;;;;;;;5073921;28;20173;-83
2021/07/14 04:24:39;;;;;;;20.13;18.23;;;;;;;;;;5056296;28;20173;-83
2021/07/14 04:27:06;;;;;;;20.77;18.33;;;;;;;;;;5056194;28;20665;-83
2021/07/14 04:29:32;;;;;;;21.30;19.10;;;;;;;;;;5056265;28;20240;-83
2021/07/14 04:31:58;;;;;;;19.20;17.27;;;;;;;;;;5056446;28;20253;-83
2021/07/14 04:34:24;;;;;;;21.23;17.70;;;;;;;;;;5056636;28;20177;-83
2021/07/14 04:36:51;;;;;;;18.70;16.70;;;;;;;;;;5055703;28;20192;-83
2021/07/14 04:39:17;;;;;;;18.07;16.23;;;;;;;;;;5055646;28;20208;-83
2021/07/14 04:41:43;;;;;;;18.30;16.40;;;;;;;;;;5056471;28;20174;-83
2021/07/14 04:44:11;;;;;;;18.23;16.43;;;;;;;;;;5056394;28;20173;-83
2021/07/14 04:46:37;;;;;;;17.73;15.93;;;;;;;;;;5056273;28;20268;-83
2021/07/14 04:49:04;;;;;;;18.67;16.77;;;;;;;;;;5057060;28;20577;-83
2021/07/14 04:51:30;;;;;;;16.43;14.73;;;;;;;;;;5073507;28;20169;-83
2021/07/14 04:53:56;;;;;;;17.90;16.20;;;;;;;;;;5074501;28;20212;-83
2021/07/14 04:56:22;;;;;;;17.97;16.07;;;;;;;;;;5056284;28;20175;-84
2021/07/14 04:58:49;;;;;;;16.87;15.27;;;;;;;;;;5074677;28;20287;-83
2021/07/14 05:01:18;;;;;;;18.00;16.10;;;;;;;;;;5056332;28;20275;-83
2021/07/14 05:03:45;;;;;;;16.80;15.20;;;;;;;;;;5074213;28;20192;-83
2021/07/14 05:06:15;;;;;;;16.53;14.87;;;;;;;;;;5055804;28;20632;-83
2021/07/14 05:08:41;;;;;;;15.53;14.03;;;;;;;;;;5056230;28;20636;-83
2021/07/14 05:11:07;;;;;;;16.43;14.83;;;;;;;;;;5056137;28;20199;-84
2021/07/14 05:13:33;;;;;;;18.03;16.17;;;;;;;;;;5056049;28;20176;-84
2021/07/14 05:15:59;;;;;;;15.57;14.10;;;;;;;;;;5073624;28;20260;-83
2021/07/14 05:18:25;;;;;;;16.23;14.53;;;;;;;;;;5055003;28;20287;-83
2021/07/14 05:20:51;;;;;;;16.33;14.70;;;;;;;;;;5054879;28;20184;-83
2021/07/14 05:23:17;;;;;;;16.13;14.53;;;;;;;;;;5073358;28;20522;-83
2021/07/14 05:25:44;;;;;;;16.00;14.30;;;;;;;;;;5072806;28;20641;-83
2021/07/14 05:28:11;;;;;;;16.17;14.63;;;;;;;;;;5054303;28;20191;-83
2021/07/14 05:30:40;;;;;;;14.57;13.10;;;;;;;;;;5072434;28;20181;-83
2021/07/14 05:33:06;;;;;;;16.57;14.97;;;;;;;;;;5054302;28;20590;-83
2021/07/14 05:35:33;;;;;;;15.73;14.23;;;;;;;;;;5054500;28;20220;-83
2021/07/14 05:37:59;;;;;;;15.00;13.60;;;;;;;;;;5053887;28;20707;-83
2021/07/14 05:40:25;;;;;;;14.57;13.17;;;;;;;;;;5072637;28;20175;-83
2021/07/14 05:42:51;;;;;;;16.40;14.70;;;;;;;;;;5054763;28;20233;-83
2021/07/14 05:45:17;;;;;;;16.87;15.23;;;;;;;;;;5054429;28;20179;-83
2021/07/14 05:47:43;;;;;;;17.00;15.30;;;;;;;;;;5054845;28;20645;-84
2021/07/14 05:50:10;;;;;;;16.30;14.67;;;;;;;;;;5072818;28;20185;-84
2021/07/14 05:52:36;;;;;;;17.03;15.33;;;;;;;;;;5053603;28;20186;-83
2021/07/14 05:55:02;;;;;;;17.65;15.98;;;;;;;;;;5070973;28;20438;-83
2021/07/14 05:57:28;;;;;;;17.07;14.33;;;;;;;;;;5054054;28;20530;-83
2021/07/14 05:59:54;;;;;;;15.97;14.47;;;;;;;;;;5054144;28;20218;-83
2021/07/14 06:02:20;;;;;;;16.00;14.30;;;;;;;;;;5053723;28;20175;-83
2021/07/14 06:04:46;;;;;;;17.70;15.83;;;;;;;;;;5072457;28;20256;-83
2021/07/14 06:07:12;;;;;;;17.13;15.37;;;;;;;;;;5054121;28;20209;-83
2021/07/14 06:09:39;;;;;;;17.93;16.23;;;;;;;;;;5054070;28;20692;-83
2021/07/14 06:12:06;;;;;;;18.77;16.43;;;;;;;;;;5053512;28;20185;-83
2021/07/14 06:14:32;;;;;;;17.17;14.97;;;;;;;;;;5054083;28;20196;-83
2021/07/14 06:16:58;;;;;;;17.87;15.83;;;;;;;;;;5053580;28;20237;-83
2021/07/14 06:19:25;;;;;;;17.67;14.73;;;;;;;;;;5072094;28;20189;-83
2021/07/14 06:21:51;;;;;;;17.00;15.27;;;;;;;;;;5053829;28;20334;-84
2021/07/14 06:24:17;;;;;;;16.97;15.00;;;;;;;;;;5071889;28;20627;-83
2021/07/14 06:26:43;;;;;;;16.20;14.53;;;;;;;;;;5053598;28;20658;-83
2021/07/14 06:29:10;;;;;;;16.23;14.50;;;;;;;;;;5054157;28;20201;-83
2021/07/14 06:31:36;;;;;;;16.23;14.53;;;;;;;;;;5053958;28;20219;-83
2021/07/14 06:34:02;;;;;;;16.03;14.03;;;;;;;;;;5073330;28;20176;-83
2021/07/14 06:36:28;;;;;;;15.20;13.50;;;;;;;;;;5054649;28;20522;-83
2021/07/14 06:38:54;;;;;;;15.97;14.37;;;;;;;;;;5054684;28;20690;-83
2021/07/14 06:41:22;;;;;;;15.90;14.33;;;;;;;;;;5054100;28;20173;-83
2021/07/14 06:43:49;;;;;;;16.07;14.37;;;;;;;;;;5054627;28;20179;-83
2021/07/14 06:46:17;;;;;;;16.03;14.43;;;;;;;;;;5054302;28;20172;-83
2021/07/14 06:48:43;;;;;;;15.87;14.17;;;;;;;;;;5054583;28;20203;-83
2021/07/14 06:51:09;;;;;;;16.60;14.97;;;;;;;;;;5053804;28;20177;-83
2021/07/14 06:53:36;;;;;;;17.77;15.73;;;;;;;;;;5053918;28;20223;-83
2021/07/14 06:56:02;;;;;;;16.20;13.63;;;;;;;;;;5053864;28;20631;-83
2021/07/14 06:58:29;;;;;;;15.17;13.67;;;;;;;;;;5071230;28;20208;-83
2021/07/14 07:00:56;;;;;;;15.47;13.80;;;;;;;;;;5053514;28;20647;-84
2021/07/14 07:03:22;;;;;;;14.97;13.40;;;;;;;;;;5053592;28;20664;-83
2021/07/14 07:05:48;;;;;;;15.93;14.23;;;;;;;;;;5071816;28;20180;-83
2021/07/14 07:08:15;;;;;;;14.90;13.37;;;;;;;;;;5071738;28;20188;-83
2021/07/14 07:10:41;;;;;;;15.40;14.00;;;;;;;;;;5053571;28;20635;-83
2021/07/14 07:13:07;;;;;;;15.40;13.33;;;;;;;;;;5053763;28;20177;-83
2021/07/14 07:15:33;;;;;;;16.47;14.57;;;;;;;;;;5057700;28;20187;-83
2021/07/14 07:17:59;;;;;;;15.47;13.97;;;;;;;;;;5057185;28;20176;-83
2021/07/14 07:20:25;;;;;;;16.00;14.37;;;;;;;;;;5057414;28;20644;-83
2021/07/14 07:22:51;;;;;;;15.50;13.93;;;;;;;;;;5057070;28;20214;-83
2021/07/14 07:25:18;;;;;;;16.43;14.80;;;;;;;;;;5057303;28;20173;-83
2021/07/14 07:27:45;;;;;;;19.13;16.23;;;;;;;;;;5056954;28;20177;-83
2021/07/14 07:30:12;;;;;;;16.17;14.47;;;;;;;;;;5076406;28;20169;-82
2021/07/14 07:32:38;;;;;;;16.83;15.23;;;;;;;;;;5075991;28;20635;-83
2021/07/14 07:35:05;;;;;;;17.00;15.23;;;;;;;;;;5057837;28;20180;-84
2021/07/14 07:37:31;;;;;;;16.83;15.03;;;;;;;;;;5057855;28;20173;-84
2021/07/14 07:39:58;;;;;;;16.93;15.13;;;;;;;;;;5058364;28;20652;-83
2021/07/14 07:42:24;;;;;;;17.03;15.23;;;;;;;;;;5058463;28;20697;-83
2021/07/14 07:44:50;;;;;;;16.10;14.40;;;;;;;;;;5058838;28;20183;-83
2021/07/14 07:47:17;;;;;;;16.53;14.73;;;;;;;;;;5058557;28;20184;-82
2021/07/14 07:49:45;;;;;;;15.90;14.20;;;;;;;;;;5057502;28;20673;-83
2021/07/14 07:52:11;;;;;;;18.20;16.37;;;;;;;;;;5056724;28;20173;-83
2021/07/14 07:54:37;;;;;;;18.13;15.97;;;;;;;;;;5057651;28;20229;-83
2021/07/14 07:57:04;;;;;;;20.80;18.60;;;;;;;;;;5058085;28;20184;-83
2021/07/14 07:59:30;;;;;;;19.77;17.67;;;;;;;;;;5057095;28;20200;-82
2021/07/14 08:01:56;;;;;;;19.43;17.20;;;;;;;;;;5057084;28;20170;-82
2021/07/14 08:04:22;;;;;;;17.90;16.00;;;;;;;;;;5057142;28;20806;-82
2021/07/14 08:06:48;;;;;;;17.03;15.33;;;;;;;;;;5057300;28;20549;-82
2021/07/14 08:09:14;;;;;;;16.43;14.73;;;;;;;;;;5057764;28;20182;-83
2021/07/14 08:11:40;;;;;;;15.93;14.33;;;;;;;;;;5075222;28;20251;-83
2021/07/14 08:14:06;;;;;;;16.47;14.40;;;;;;;;;;5074343;28;20665;-82
2021/07/14 08:16:32;;;;;;;16.07;14.47;;;;;;;;;;5056829;28;20177;-82
2021/07/14 08:18:59;;;;;;;15.47;13.97;;;;;;;;;;5075419;28;20199;-82
2021/07/14 08:21:25;;;;;;;15.37;13.77;;;;;;;;;;5057152;28;20210;-82
2021/07/14 08:23:51;;;;;;;14.70;13.33;;;;;;;;;;5075739;28;20174;-82
2021/07/14 08:26:19;;;;;;;14.40;13.10;;;;;;;;;;5057276;28;20176;-83
2021/07/14 08:28:45;;;;;;;11.57;10.17;;;;;;;;;;5057185;28;20274;-82
2021/07/14 08:31:11;;;;;;;12.87;11.43;;;;;;;;;;5057543;28;20197;-82
2021/07/14 08:33:37;;;;;;;12.67;11.27;;;;;;;;;;5057816;28;20179;-83
2021/07/14 08:36:03;;;;;;;12.25;11.15;;;;;;;;;;5056866;28;20498;-83
2021/07/14 08:38:29;;;;;;;13.07;11.77;;;;;;;;;;5057185;28;20206;-83
2021/07/14 08:40:58;;;;;;;11.37;10.27;;;;;;;;;;5056842;28;20181;-83
2021/07/14 08:43:27;;;;;;;10.07;9.07;;;;;;;;;;5057143;28;20229;-83
2021/07/14 08:45:54;;;;;;;10.37;9.37;;;;;;;;;;5057900;28;20180;-83
2021/07/14 08:48:20;;;;;;;10.60;8.87;;;;;;;;;;5058152;28;20550;-82
2021/07/14 08:50:48;;;;;;;8.23;7.53;;;;;;;;;;5057253;28;20185;-82
2021/07/14 08:53:16;;;;;;;9.90;8.90;;;;;;;;;;5075243;28;20639;-83
2021/07/14 08:55:43;;;;;;;9.77;8.27;;;;;;;;;;5055780;28;20221;-82
2021/07/14 08:58:11;;;;;;;8.97;8.07;;;;;;;;;;5054664;28;20192;-82
2021/07/14 09:00:37;;;;;;;8.77;7.97;;;;;;;;;;5055322;28;20180;-82
2021/07/14 09:03:03;;;;;;;8.43;7.63;;;;;;;;;;5055603;28;20172;-82
2021/07/14 09:05:29;;;;;;;8.00;7.27;;;;;;;;;;5072470;28;20180;-82
2021/07/14 09:07:55;;;;;;;7.60;6.90;;;;;;;;;;5053496;28;20203;-82
2021/07/14 09:10:21;;;;;;;7.93;7.13;;;;;;;;;;5054985;28;20176;-82
2021/07/14 09:12:47;;;;;;;8.53;7.60;;;;;;;;;;5053967;28;20627;-81
2021/07/14 09:15:15;;;;;;;11.03;8.63;;;;;;;;;;5055036;28;20184;-82
2021/07/14 09:17:52;;;;;;;8.87;7.93;;;;;;;;;;5054558;28;20172;-81
2021/07/14 09:20:20;;;;;;;8.77;7.87;;;;;;;;;;5054762;28;20577;-82
2021/07/14 09:22:47;;;;;;;8.47;7.67;;;;;;;;;;5072414;28;20710;-81
2021/07/14 09:25:14;;;;;;;9.60;8.60;;;;;;;;;;5054550;28;20372;-82
2021/07/14 09:27:52;;;;;;;11.07;8.50;;;;;;;;;;5054613;28;20643;-82
2021/07/14 09:30:20;;;;;;;8.63;7.63;;;;;;;;;;5073125;28;20160;-82
2021/07/14 09:32:51;;;;;;;9.50;8.60;;;;;;;;;;5073003;28;20207;-82
2021/07/14 09:35:23;;;;;;;9.70;8.70;;;;;;;;;;5072940;28;20528;-81
2021/07/14 09:37:49;;;;;;;11.83;9.40;;;;;;;;;;5053849;28;20271;-81
2021/07/14 09:40:16;;;;;;;11.33;10.13;;;;;;;;;;5054011;28;20304;-81
2021/07/14 09:43:01;;;;;;;11.53;10.40;;;;;;;;;;5054918;28;20199;-82
2021/07/14 09:45:36;;;;;;;12.00;9.97;;;;;;;;;;5053814;28;20172;-81
2021/07/14 09:48:04;;;;;;;16.23;13.03;;;;;;;;;;5053841;28;20194;-82
2021/07/14 09:50:33;;;;;;;15.10;12.50;;;;;;;;;;5071760;28;20172;-82
2021/07/14 09:53:00;;;;;;;19.23;14.87;;;;;;;;;;5053802;28;20303;-82
2021/07/14 09:55:33;;;;;;;16.87;13.83;;;;;;;;;;5054937;28;20232;-81
2021/07/14 09:58:12;;;;;;;18.67;16.07;;;;;;;;;;5054218;28;20690;-82
2021/07/14 10:00:39;;;;;;;16.77;13.93;;;;;;;;;;5055491;28;20178;-82
2021/07/14 10:03:05;;;;;;;19.17;16.10;;;;;;;;;;5055618;28;20631;-82
2021/07/14 10:05:32;;;;;;;19.10;16.90;;;;;;;;;;5055327;28;20212;-82
2021/07/14 10:08:17;;;;;;;20.77;18.57;;;;;;;;;;5055354;28;20192;-82
2021/07/14 10:10:43;;;;;;;23.83;18.47;;;;;;;;;;5055544;28;20630;-82
2021/07/14 10:13:10;;;;;;;18.40;16.43;;;;;;;;;;5055394;28;20179;-82
2021/07/14 10:15:36;;;;;;;20.53;18.10;;;;;;;;;;5055526;28;20429;-82
2021/07/14 10:18:02;;;;;;;26.30;19.27;;;;;;;;;;5055074;28;20647;-82
2021/07/14 10:20:32;;;;;;;22.20;18.67;;;;;;;;;;5055432;28;20176;-82
2021/07/14 10:23:03;;;;;;;27.63;21.40;;;;;;;;;;5073106;28;20160;-82
2021/07/14 10:25:30;;;;;;;26.87;21.00;;;;;;;;;;5055007;28;20172;-82
2021/07/14 10:27:57;;;;;;;28.73;22.47;;;;;;;;;;5055525;28;20524;-83
2021/07/14 10:30:23;;;;;;;25.87;22.13;;;;;;;;;;5055273;28;20188;-81
2021/07/14 10:32:49;;;;;;;28.20;22.67;;;;;;;;;;5072932;28;20183;-81
2021/07/14 10:35:17;;;;;;;36.77;30.93;;;;;;;;;;5054170;28;20536;-81
2021/07/14 10:38:02;;;;;;;32.90;27.43;;;;;;;;;;5054834;28;20514;-81
2021/07/14 10:40:28;;;;;;;35.37;27.30;;;;;;;;;;5055017;28;20184;-81
2021/07/14 10:42:55;;;;;;;34.03;29.20;;;;;;;;;;5055167;28;20172;-81
2021/07/14 10:45:21;;;;;;;38.40;28.03;;;;;;;;;;5073080;28;20168;-81
2021/07/14 10:47:48;;;;;;;36.10;29.93;;;;;;;;;;5054788;28;20173;-81
2021/07/14 10:50:15;;;;;;;39.60;29.90;;;;;;;;;;5057822;28;20226;-81
2021/07/14 10:52:42;;;;;;;38.40;29.80;;;;;;;;;;5058700;28;20968;-81
2021/07/14 10:55:13;;;;;;;34.87;29.37;;;;;;;;;;5058553;28;20228;-82
2021/07/14 10:57:40;;;;;;;35.07;28.30;;;;;;;;;;5059076;28;20263;-82
2021/07/14 11:00:07;;;;;;;35.07;28.87;;;;;;;;;;5057811;28;20197;-82
2021/07/14 11:02:55;;;;;;;35.83;29.50;;;;;;;;;;5058517;28;20177;-81
2021/07/14 11:05:56;;;;;;;35.50;28.10;;;;;;;;;;5076127;28;20156;-82
2021/07/14 11:09:01;;;;;;;34.87;29.67;;;;;;;;;;4998062;28;20294;-81
2021/07/14 11:11:27;;;;;;;35.37;27.33;;;;;;;;;;4978753;28;20184;-82
2021/07/14 11:14:09;;;;;;;31.57;25.97;;;;;;;;;;4978853;28;20314;-82
2021/07/14 11:16:36;;;;;;;32.17;28.77;;;;;;;;;;5025476;28;20484;-81
2021/07/14 11:19:09;;;;;;;29.87;26.23;;;;;;;;;;5059323;28;20564;-82
2021/07/14 11:21:46;;;;;;;34.50;28.37;;;;;;;;;;5059598;28;20165;-82
2021/07/14 11:24:12;;;;;;;30.67;25.70;;;;;;;;;;5060176;28;20177;-82
2021/07/14 11:26:38;;;;;;;31.50;26.53;;;;;;;;;;5077927;28;20178;-82
2021/07/14 11:29:16;;;;;;;33.17;26.87;;;;;;;;;;5077265;28;20576;-82
2021/07/14 11:31:42;;;;;;;32.57;26.50;;;;;;;;;;5059831;28;20793;-82
2021/07/14 11:34:28;;;;;;;33.13;27.67;;;;;;;;;;5059198;28;20186;-82
2021/07/14 11:36:54;;;;;;;31.60;26.57;;;;;;;;;;5059064;28;20180;-82
2021/07/14 11:39:27;;;;;;;32.07;26.60;;;;;;;;;;5077236;28;20246;-82
2021/07/14 11:42:13;;;;;;;33.77;25.60;;;;;;;;;;5059220;28;20264;-84
2021/07/14 11:44:39;;;;;;;33.30;26.83;;;;;;;;;;5059142;28;20225;-82
2021/07/14 11:47:25;;;;;;;34.37;27.87;;;;;;;;;;5058963;28;20184;-82
2021/07/14 11:49:51;;;;;;;35.53;28.00;;;;;;;;;;5077131;28;20264;-82
2021/07/14 11:52:36;;;;;;;37.13;28.67;;;;;;;;;;5058624;28;20180;-82
2021/07/14 11:55:21;;;;;;;38.97;29.00;;;;;;;;;;5068458;28;20228;-82
2021/07/14 11:57:47;;;;;;;37.63;29.57;;;;;;;;;;5075371;28;20234;-82
2021/07/14 12:00:13;;;;;;;33.70;27.77;;;;;;;;;;5074460;28;20587;-82
2021/07/14 12:02:39;;;;;;;36.57;30.83;;;;;;;;;;5075341;28;20268;-81
2021/07/14 12:05:07;;;;;;;37.43;28.97;;;;;;;;;;5075059;28;20208;-82
2021/07/14 12:07:44;;;;;;;39.93;30.43;;;;;;;;;;5075650;28;20192;-82
2021/07/14 12:10:17;;;;;;;42.67;31.43;;;;;;;;;;5075299;28;20180;-82
2021/07/14 12:12:47;;;;;;;41.13;31.90;;;;;;;;;;5076270;28;20161;-82
2021/07/14 12:15:13;;;;;;;40.57;30.90;;;;;;;;;;5075197;28;20593;-82
2021/07/14 12:17:39;;;;;;;39.00;31.20;;;;;;;;;;5075236;28;20184;-82
2021/07/14 12:20:06;;;;;;;40.07;31.13;;;;;;;;;;5074201;28;20200;-81
2021/07/14 12:22:35;;;;;;;39.73;30.13;;;;;;;;;;5073166;28;20179;-81
2021/07/14 12:25:09;;;;;;;47.60;31.53;;;;;;;;;;5073301;28;20180;-81
2021/07/14 12:27:36;;;;;;;41.97;33.20;;;;;;;;;;5072877;28;20619;-81
2021/07/14 12:30:07;;;;;;;41.23;33.50;;;;;;;;;;5072742;28;20180;-81
2021/07/14 12:32:33;;;;;;;39.13;32.33;;;;;;;;;;5072886;28;20538;-81
2021/07/14 12:34:59;;;;;;;44.83;32.60;;;;;;;;;;5072827;28;20180;-81
2021/07/14 12:37:25;;;;;;;40.03;31.27;;;;;;;;;;5074497;28;20203;-82
2021/07/14 12:39:51;;;;;;;44.73;31.60;;;;;;;;;;5074669;28;20612;-81
2021/07/14 12:42:24;;;;;;;35.37;29.53;;;;;;;;;;5074198;28;20168;-82
2021/07/14 12:44:51;;;;;;;44.07;31.83;;;;;;;;;;5073144;28;20643;-81
2021/07/14 12:47:19;;;;;;;39.17;31.00;;;;;;;;;;5074046;28;20553;-82
2021/07/14 12:49:46;;;;;;;43.57;31.37;;;;;;;;;;5073875;28;20180;-82
2021/07/14 12:52:16;;;;;;;42.23;30.73;;;;;;;;;;5072416;28;20187;-82
2021/07/14 12:54:43;;;;;;;40.37;30.17;;;;;;;;;;5069677;28;20253;-83
2021/07/14 12:57:15;;;;;;;40.17;29.80;;;;;;;;;;5072008;28;20212;-84
2021/07/14 12:59:51;;;;;;;37.80;30.80;;;;;;;;;;5073229;28;20192;-83
2021/07/14 13:02:18;;;;;;;36.33;27.30;;;;;;;;;;5072250;28;20596;-82
2021/07/14 13:04:45;;;;;;;38.43;30.60;;;;;;;;;;5072261;28;20277;-83
2021/07/14 13:07:11;;;;;;;35.73;29.13;;;;;;;;;;5071949;28;20305;-83
2021/07/14 13:09:38;;;;;;;41.37;30.90;;;;;;;;;;5072214;28;20177;-83
2021/07/14 13:12:04;;;;;;;38.87;29.00;;;;;;;;;;5072492;28;20226;-82
2021/07/14 13:14:30;;;;;;;41.70;31.83;;;;;;;;;;5075771;28;20191;-82
2021/07/14 13:16:56;;;;;;;36.50;29.80;;;;;;;;;;5074979;28;20188;-83
2021/07/14 13:19:30;;;;;;;36.97;29.33;;;;;;;;;;5076462;28;20203;-84
2021/07/14 13:21:59;;;;;;;35.73;28.13;;;;;;;;;;5075942;28;20600;-83
2021/07/14 13:24:32;;;;;;;31.63;26.13;;;;;;;;;;5075874;28;20267;-82
2021/07/14 13:27:02;;;;;;;38.20;27.50;;;;;;;;;;5077181;28;20169;-84
2021/07/14 13:29:28;;;;;;;32.30;26.27;;;;;;;;;;5075212;28;20222;-82
2021/07/14 13:32:11;;;;;;;30.20;25.50;;;;;;;;;;5075299;28;20621;-84
2021/07/14 13:34:45;;;;;;;33.23;23.67;;;;;;;;;;5075473;28;20188;-84
2021/07/14 13:37:12;;;;;;;29.70;24.37;;;;;;;;;;5076991;28;20192;-83
2021/07/14 13:39:41;;;;;;;31.70;23.53;;;;;;;;;;5075710;28;20297;-84
2021/07/14 13:42:14;;;;;;;29.70;23.47;;;;;;;;;;5075944;28;20218;-83
2021/07/14 13:44:42;;;;;;;28.40;24.60;;;;;;;;;;5075522;28;20243;-83
2021/07/14 13:47:10;;;;;;;30.13;24.43;;;;;;;;;;5075227;28;20172;-84
2021/07/14 13:49:37;;;;;;;31.53;26.00;;;;;;;;;;5075070;28;20777;-83
2021/07/14 13:52:03;;;;;;;29.17;24.57;;;;;;;;;;5075797;28;20178;-83
2021/07/14 13:54:31;;;;;;;29.17;23.83;;;;;;;;;;5075426;28;20224;-83
2021/07/14 13:57:00;;;;;;;26.37;23.50;;;;;;;;;;5074606;28;20229;-83
2021/07/14 13:59:27;;;;;;;30.63;24.08;;;;;;;;;;5075565;28;20856;-83
2021/07/14 14:02:00;;;;;;;25.13;22.43;;;;;;;;;;5074586;28;20781;-82
2021/07/14 14:04:27;;;;;;;28.47;23.70;;;;;;;;;;5076023;28;20163;-83
2021/07/14 14:06:53;;;;;;;27.50;24.53;;;;;;;;;;5075313;28;20206;-83
2021/07/14 14:09:19;;;;;;;27.93;24.17;;;;;;;;;;5073138;28;20174;-82
2021/07/14 14:11:46;;;;;;;29.47;26.30;;;;;;;;;;5071664;28;20184;-82
2021/07/14 14:14:12;;;;;;;26.53;23.67;;;;;;;;;;5071341;28;20172;-82
2021/07/14 14:16:38;;;;;;;30.07;25.17;;;;;;;;;;5071742;28;20206;-82
2021/07/14 14:19:12;;;;;;;31.40;25.57;;;;;;;;;;5072491;28;20228;-82
2021/07/14 14:21:38;;;;;;;29.70;25.60;;;;;;;;;;5054339;28;20216;-82
2021/07/14 14:24:10;;;;;;;28.20;25.20;;;;;;;;;;5071517;28;20174;-82
2021/07/14 14:26:36;;;;;;;31.30;25.57;;;;;;;;;;5071229;28;20204;-82
2021/07/14 14:29:02;;;;;;;30.87;26.47;;;;;;;;;;5071205;28;20185;-82
2021/07/14 14:31:28;;;;;;;29.87;25.57;;;;;;;;;;5070570;28;20291;-82